createdAt,value
2018-12-09T00:00:37.554Z,7.10
2018-12-09T00:03:05.152Z,7.10
2018-12-09T00:05:32.655Z,7.20
2018-12-09T00:08:00.283Z,7.20
2018-12-09T00:10:27.829Z,7.30
2018-12-09T00:12:55.293Z,7.30
2018-12-09T00:15:22.847Z,7.30
2018-12-09T00:17:50.398Z,7.40
2018-12-09T00:20:17.855Z,7.40
2018-12-09T00:22:45.354Z,7.40
2018-12-09T00:25:12.856Z,7.40
2018-12-09T00:27:40.349Z,7.50
2018-12-09T00:30:07.867Z,7.50
2018-12-09T00:32:35.447Z,7.50
2018-12-09T00:35:03.112Z,7.60
2018-12-09T00:37:30.596Z,7.60
2018-12-09T00:39:58.092Z,7.60
2018-12-09T00:42:25.613Z,7.60
2018-12-09T00:44:53.154Z,7.50
2018-12-09T00:47:21.109Z,7.50
2018-12-09T00:49:48.578Z,7.50
2018-12-09T00:52:16.107Z,7.50
2018-12-09T00:54:43.631Z,7.40
2018-12-09T00:57:11.173Z,7.50
2018-12-09T00:59:38.700Z,7.50
2018-12-09T01:02:08.109Z,7.50
2018-12-09T01:04:35.687Z,7.60
2018-12-09T01:07:03.344Z,7.60
2018-12-09T01:09:30.906Z,7.60
2018-12-09T01:11:58.655Z,7.60
2018-12-09T01:14:26.164Z,7.50
2018-12-09T01:16:53.736Z,7.50
2018-12-09T01:19:21.237Z,7.50
2018-12-09T01:21:48.689Z,7.50
2018-12-09T01:24:16.244Z,7.50
2018-12-09T01:26:43.895Z,7.50
2018-12-09T01:29:11.367Z,7.60
2018-12-09T01:31:38.849Z,7.60
2018-12-09T01:34:06.380Z,7.60
2018-12-09T01:36:33.907Z,7.60
2018-12-09T01:39:01.411Z,7.60
2018-12-09T01:41:29.006Z,7.70
2018-12-09T01:43:56.625Z,7.70
2018-12-09T01:46:24.075Z,7.70
2018-12-09T01:48:51.687Z,7.80
2018-12-09T01:51:19.200Z,7.80
2018-12-09T01:53:58.636Z,7.80
2018-12-09T01:56:26.267Z,7.80
2018-12-09T01:58:53.706Z,7.80
2018-12-09T02:01:21.364Z,7.90
2018-12-09T02:03:48.903Z,7.90
2018-12-09T02:06:16.362Z,8.00
2018-12-09T02:08:44.434Z,8.00
2018-12-09T02:11:12.292Z,8.00
2018-12-09T02:13:39.953Z,8.10
2018-12-09T02:16:07.634Z,8.10
2018-12-09T02:18:35.472Z,8.10
2018-12-09T02:21:03.075Z,8.10
2018-12-09T02:23:30.782Z,8.10
2018-12-09T02:25:58.366Z,8.10
2018-12-09T02:28:25.838Z,8.20
2018-12-09T02:30:53.370Z,8.20
2018-12-09T02:33:20.929Z,8.20
2018-12-09T02:35:48.486Z,8.20
2018-12-09T02:38:15.959Z,8.20
2018-12-09T02:40:43.415Z,8.10
2018-12-09T02:43:10.999Z,8.10
2018-12-09T02:45:38.490Z,8.20
2018-12-09T02:48:05.929Z,8.20
2018-12-09T02:50:33.437Z,8.20
2018-12-09T02:53:01.034Z,8.20
2018-12-09T02:55:28.982Z,8.20
2018-12-09T02:57:56.543Z,8.20
2018-12-09T03:00:24.083Z,8.30
2018-12-09T03:02:51.690Z,8.30
2018-12-09T03:05:19.318Z,8.20
2018-12-09T03:07:47.191Z,8.20
2018-12-09T03:10:14.729Z,8.20
2018-12-09T03:12:42.195Z,8.10
2018-12-09T03:15:09.728Z,8.10
2018-12-09T03:17:37.202Z,8.10
2018-12-09T03:20:04.772Z,8.00
2018-12-09T03:22:32.247Z,8.10
2018-12-09T03:24:59.736Z,8.00
2018-12-09T03:27:27.344Z,8.00
2018-12-09T03:29:54.805Z,8.10
2018-12-09T03:32:22.358Z,8.00
2018-12-09T03:34:49.978Z,8.00
2018-12-09T03:37:17.499Z,7.90
2018-12-09T03:39:45.021Z,7.90
2018-12-09T03:42:12.501Z,7.90
2018-12-09T03:44:40.219Z,7.90
2018-12-09T03:47:07.745Z,7.90
2018-12-09T03:49:35.296Z,7.90
2018-12-09T03:52:02.855Z,7.80
2018-12-09T03:54:30.341Z,7.80
2018-12-09T03:56:57.875Z,7.90
2018-12-09T03:59:25.469Z,7.80
2018-12-09T04:01:52.978Z,7.80
2018-12-09T04:04:20.452Z,7.80
2018-12-09T04:06:48.014Z,7.80
2018-12-09T04:09:15.564Z,7.80
2018-12-09T04:11:43.129Z,7.80
2018-12-09T04:14:10.877Z,7.80
2018-12-09T04:16:38.428Z,7.80
2018-12-09T04:19:06.116Z,7.90
2018-12-09T04:21:33.684Z,7.90
2018-12-09T04:24:02.162Z,7.90
2018-12-09T04:26:29.726Z,7.90
2018-12-09T04:28:57.194Z,7.90
2018-12-09T04:31:24.691Z,7.90
2018-12-09T04:33:52.240Z,7.90
2018-12-09T04:36:19.836Z,7.90
2018-12-09T04:38:47.327Z,8.00
2018-12-09T04:41:14.871Z,8.00
2018-12-09T04:43:42.414Z,8.00
2018-12-09T04:46:10.064Z,8.10
2018-12-09T04:48:37.550Z,8.10
2018-12-09T04:51:05.119Z,8.10
2018-12-09T04:53:32.649Z,8.10
2018-12-09T04:56:00.112Z,8.20
2018-12-09T04:58:27.557Z,8.10
2018-12-09T05:00:55.277Z,8.10
2018-12-09T05:03:23.001Z,8.10
2018-12-09T05:05:50.606Z,8.10
2018-12-09T05:08:18.226Z,8.10
2018-12-09T05:10:45.806Z,8.10
2018-12-09T05:13:13.333Z,8.10
2018-12-09T05:15:40.787Z,8.00
2018-12-09T05:18:08.342Z,8.00
2018-12-09T05:20:36.239Z,8.00
2018-12-09T05:23:03.780Z,8.10
2018-12-09T05:25:31.244Z,8.10
2018-12-09T05:27:58.714Z,8.10
2018-12-09T05:30:26.209Z,8.10
2018-12-09T05:32:53.708Z,8.10
2018-12-09T05:35:21.586Z,8.10
2018-12-09T05:37:49.042Z,8.20
2018-12-09T05:40:16.612Z,8.20
2018-12-09T05:42:44.153Z,8.20
2018-12-09T05:45:11.615Z,8.20
2018-12-09T05:47:39.605Z,8.20
2018-12-09T05:50:07.264Z,8.20
2018-12-09T05:52:34.805Z,8.20
2018-12-09T05:55:02.264Z,8.20
2018-12-09T05:57:29.737Z,8.20
2018-12-09T05:59:57.607Z,8.20
2018-12-09T06:02:37.056Z,8.20
2018-12-09T06:05:04.900Z,8.20
2018-12-09T06:07:32.462Z,8.20
2018-12-09T06:10:00.010Z,8.20
2018-12-09T06:12:27.563Z,8.20
2018-12-09T06:14:55.031Z,8.10
2018-12-09T06:17:22.586Z,8.10
2018-12-09T06:19:50.046Z,8.10
2018-12-09T06:22:17.510Z,8.10
2018-12-09T06:24:44.967Z,8.10
2018-12-09T06:27:12.633Z,8.10
2018-12-09T06:29:40.173Z,8.10
2018-12-09T06:32:07.723Z,8.10
2018-12-09T06:34:35.218Z,8.00
2018-12-09T06:37:02.762Z,8.00
2018-12-09T06:39:30.239Z,8.00
2018-12-09T06:41:57.772Z,8.00
2018-12-09T06:44:25.231Z,8.00
2018-12-09T06:46:52.806Z,8.10
2018-12-09T06:49:20.661Z,8.10
2018-12-09T06:51:48.217Z,8.10
2018-12-09T06:54:15.678Z,8.20
2018-12-09T06:56:43.154Z,8.20
2018-12-09T06:59:10.698Z,8.10
2018-12-09T07:01:38.247Z,8.10
2018-12-09T07:04:05.830Z,8.20
2018-12-09T07:06:33.387Z,8.10
2018-12-09T07:09:00.936Z,8.10
2018-12-09T07:11:28.392Z,8.10
2018-12-09T07:13:55.832Z,8.10
2018-12-09T07:16:23.543Z,8.10
2018-12-09T07:18:51.314Z,8.10
2018-12-09T07:21:18.933Z,8.10
2018-12-09T07:23:46.404Z,8.10
2018-12-09T07:26:13.868Z,8.10
2018-12-09T07:28:41.744Z,8.10
2018-12-09T07:31:09.235Z,8.10
2018-12-09T07:33:36.755Z,8.10
2018-12-09T07:36:04.245Z,8.00
2018-12-09T07:38:31.715Z,8.00
2018-12-09T07:40:59.186Z,8.00
2018-12-09T07:43:26.647Z,8.10
2018-12-09T07:45:54.127Z,8.00
2018-12-09T07:48:21.602Z,8.00
2018-12-09T07:50:49.058Z,8.00
2018-12-09T07:53:16.515Z,8.00
2018-12-09T07:55:43.965Z,8.10
2018-12-09T07:58:11.433Z,8.10
2018-12-09T08:00:38.877Z,8.10
2018-12-09T08:03:06.328Z,8.10
2018-12-09T08:05:33.781Z,8.00
2018-12-09T08:08:01.246Z,8.00
2018-12-09T08:10:28.725Z,7.90
2018-12-09T08:12:56.160Z,7.90
2018-12-09T08:15:23.607Z,7.90
2018-12-09T08:17:51.063Z,7.80
2018-12-09T08:20:18.536Z,7.80
2018-12-09T08:22:45.999Z,7.80
2018-12-09T08:25:13.463Z,7.70
2018-12-09T08:27:40.904Z,7.60
2018-12-09T08:32:59.488Z,7.40
2018-12-09T08:35:26.944Z,7.20
2018-12-09T08:37:54.402Z,7.10
2018-12-09T08:40:21.935Z,7.10
2018-12-09T08:42:49.377Z,7.00
2018-12-09T08:45:16.820Z,6.90
2018-12-09T08:47:44.269Z,6.90
2018-12-09T08:50:11.730Z,6.80
2018-12-09T08:52:39.180Z,6.80
2018-12-09T08:55:06.723Z,6.80
2018-12-09T08:57:34.179Z,6.70
2018-12-09T09:00:01.676Z,6.70
2018-12-09T09:02:29.156Z,6.60
2018-12-09T09:04:56.632Z,6.70
2018-12-09T09:07:24.071Z,6.70
2018-12-09T09:09:51.590Z,6.70
2018-12-09T09:12:19.033Z,6.70
2018-12-09T09:14:46.509Z,6.70
2018-12-09T09:17:13.955Z,6.70
2018-12-09T09:19:41.405Z,6.80
2018-12-09T09:22:08.852Z,6.80
2018-12-09T09:24:36.329Z,6.90
2018-12-09T09:27:03.813Z,6.90
2018-12-09T09:29:31.407Z,6.90
2018-12-09T09:31:58.874Z,6.90
2018-12-09T09:34:26.370Z,6.90
2018-12-09T09:36:53.826Z,6.90
2018-12-09T09:39:21.375Z,7.00
2018-12-09T09:41:48.898Z,7.10
2018-12-09T09:44:16.364Z,7.10
2018-12-09T09:46:43.819Z,7.20
2018-12-09T09:49:11.633Z,7.20
2018-12-09T09:51:39.144Z,7.30
2018-12-09T09:54:06.597Z,7.30
2018-12-09T09:56:34.040Z,7.10
2018-12-09T09:59:01.507Z,7.10
2018-12-09T10:01:28.939Z,7.00
2018-12-09T10:03:57.274Z,7.00
2018-12-09T10:06:25.142Z,7.00
2018-12-09T10:08:52.638Z,7.10
2018-12-09T10:11:20.090Z,7.10
2018-12-09T10:13:47.587Z,7.20
2018-12-09T10:16:15.045Z,7.20
2018-12-09T10:18:42.506Z,7.20
2018-12-09T10:21:10.023Z,7.20
2018-12-09T10:23:37.550Z,7.20
2018-12-09T10:26:05.044Z,7.30
2018-12-09T10:28:32.593Z,7.30
2018-12-09T10:31:00.049Z,7.30
2018-12-09T10:33:27.540Z,7.30
2018-12-09T10:35:55.006Z,7.40
2018-12-09T10:38:22.452Z,7.40
2018-12-09T10:40:49.926Z,7.40
2018-12-09T10:43:17.412Z,7.40
2018-12-09T10:45:44.920Z,7.50
2018-12-09T10:48:12.374Z,7.50
2018-12-09T10:50:39.846Z,7.50
2018-12-09T10:53:07.301Z,7.60
2018-12-09T10:55:34.743Z,7.70
2018-12-09T10:58:02.208Z,7.80
2018-12-09T11:00:35.397Z,7.90
2018-12-09T11:03:02.860Z,8.00
2018-12-09T11:05:30.327Z,8.10
2018-12-09T11:07:57.825Z,8.20
2018-12-09T11:10:25.332Z,8.10
2018-12-09T11:12:52.789Z,8.10
2018-12-09T11:15:20.269Z,8.00
2018-12-09T11:17:47.711Z,8.20
2018-12-09T11:20:15.223Z,8.10
2018-12-09T11:22:42.994Z,8.10
2018-12-09T11:25:10.655Z,8.00
2018-12-09T11:27:38.130Z,7.90
2018-12-09T11:30:06.266Z,8.00
2018-12-09T11:32:33.787Z,8.00
2018-12-09T11:35:01.232Z,8.00
2018-12-09T11:37:28.682Z,8.00
2018-12-09T11:39:56.143Z,8.00
2018-12-09T11:42:23.618Z,7.90
2018-12-09T11:44:51.177Z,8.00
2018-12-09T11:47:18.702Z,8.00
2018-12-09T11:49:46.186Z,8.00
2018-12-09T11:52:13.655Z,8.10
2018-12-09T11:54:41.110Z,8.10
2018-12-09T11:57:08.600Z,8.30
2018-12-09T11:59:36.140Z,8.60
2018-12-09T12:02:03.710Z,8.60
2018-12-09T12:04:31.158Z,8.80
2018-12-09T12:06:58.661Z,9.10
2018-12-09T12:09:26.110Z,9.30
2018-12-09T12:11:53.600Z,9.60
2018-12-09T12:14:21.076Z,9.50
2018-12-09T12:16:48.571Z,9.70
2018-12-09T12:19:16.236Z,10.10
2018-12-09T12:21:43.689Z,10.60
2018-12-09T12:24:11.204Z,10.70
2018-12-09T12:26:38.831Z,10.60
2018-12-09T12:29:06.295Z,10.90
2018-12-09T12:31:33.876Z,11.10
2018-12-09T12:34:01.662Z,11.10
2018-12-09T12:36:29.131Z,11.20
2018-12-09T12:38:56.647Z,11.30
2018-12-09T12:41:24.163Z,11.40
2018-12-09T12:43:51.622Z,11.40
2018-12-09T12:46:19.147Z,11.80
2018-12-09T12:48:46.684Z,11.90
2018-12-09T12:51:14.199Z,11.80
2018-12-09T12:53:41.656Z,11.50
2018-12-09T12:56:09.116Z,11.00
2018-12-09T12:58:36.601Z,10.60
2018-12-09T13:01:04.113Z,10.30
2018-12-09T13:03:31.632Z,10.20
2018-12-09T13:05:59.532Z,10.00
2018-12-09T13:08:27.115Z,10.00
2018-12-09T13:10:54.579Z,10.30
2018-12-09T13:13:22.035Z,10.30
2018-12-09T13:15:49.894Z,10.40
2018-12-09T13:18:17.378Z,10.40
2018-12-09T13:20:44.832Z,10.40
2018-12-09T13:23:12.393Z,10.20
2018-12-09T13:25:39.908Z,10.10
2018-12-09T13:28:07.406Z,10.00
2018-12-09T13:30:34.852Z,9.90
2018-12-09T13:33:02.324Z,9.80
2018-12-09T13:35:29.782Z,9.90
2018-12-09T13:37:57.238Z,10.10
2018-12-09T13:40:24.695Z,10.40
2018-12-09T13:42:52.169Z,10.50
2018-12-09T13:45:19.636Z,10.70
2018-12-09T13:47:47.117Z,10.80
2018-12-09T13:50:14.576Z,10.60
2018-12-09T13:52:42.095Z,10.50
2018-12-09T13:55:09.626Z,10.30
2018-12-09T13:57:37.084Z,10.10
2018-12-09T14:00:08.033Z,9.90
2018-12-09T14:02:35.536Z,9.80
2018-12-09T14:05:03.578Z,9.70
2018-12-09T14:07:31.038Z,9.60
2018-12-09T14:09:58.528Z,9.60
2018-12-09T14:12:26.029Z,9.50
2018-12-09T14:14:53.488Z,9.40
2018-12-09T14:17:21.473Z,9.30
2018-12-09T14:19:49.033Z,9.30
2018-12-09T14:22:16.469Z,9.20
2018-12-09T14:24:43.928Z,9.20
2018-12-09T14:27:13.230Z,9.20
2018-12-09T14:29:40.921Z,9.20
2018-12-09T14:32:08.709Z,9.10
2018-12-09T14:34:36.270Z,9.10
2018-12-09T14:37:03.792Z,9.20
2018-12-09T14:39:31.256Z,9.20
2018-12-09T14:41:58.730Z,9.10
2018-12-09T14:44:26.373Z,9.20
2018-12-09T14:46:53.829Z,9.10
2018-12-09T14:49:21.290Z,9.20
2018-12-09T14:51:48.818Z,9.20
2018-12-09T14:54:16.282Z,9.20
2018-12-09T14:56:43.779Z,9.20
2018-12-09T14:59:11.220Z,9.10
2018-12-09T15:01:38.682Z,9.10
2018-12-09T15:04:06.133Z,9.10
2018-12-09T15:06:34.461Z,9.00
2018-12-09T15:09:02.648Z,9.00
2018-12-09T15:11:30.172Z,8.90
2018-12-09T15:13:57.642Z,8.90
2018-12-09T15:16:25.156Z,8.80
2018-12-09T15:18:52.626Z,8.80
2018-12-09T15:21:20.098Z,8.70
2018-12-09T15:23:47.559Z,8.70
2018-12-09T15:26:15.001Z,8.60
2018-12-09T15:28:42.490Z,8.60
2018-12-09T15:31:10.023Z,8.50
2018-12-09T15:33:37.501Z,8.50
2018-12-09T15:36:04.963Z,8.50
2018-12-09T15:38:32.419Z,8.40
2018-12-09T15:40:59.875Z,8.40
2018-12-09T15:43:27.334Z,8.40
2018-12-09T15:45:54.954Z,8.40
2018-12-09T15:48:22.475Z,8.40
2018-12-09T15:50:50.084Z,8.40
2018-12-09T15:53:17.586Z,8.40
2018-12-09T15:55:45.067Z,8.40
2018-12-09T15:58:12.649Z,8.40
2018-12-09T16:00:55.199Z,8.40
2018-12-09T16:03:22.782Z,8.40
2018-12-09T16:05:50.225Z,8.40
2018-12-09T16:08:17.781Z,8.40
2018-12-09T16:10:45.357Z,8.40
2018-12-09T16:13:12.868Z,8.40
2018-12-09T16:15:40.340Z,8.40
2018-12-09T16:18:07.802Z,8.40
2018-12-09T16:20:35.342Z,8.40
2018-12-09T16:23:02.823Z,8.40
2018-12-09T16:25:30.271Z,8.30
2018-12-09T16:27:58.069Z,8.20
2018-12-09T16:30:25.649Z,8.20
2018-12-09T16:32:54.579Z,8.20
2018-12-09T16:35:22.058Z,8.10
2018-12-09T16:37:49.530Z,8.20
2018-12-09T16:40:17.008Z,8.20
2018-12-09T16:42:44.448Z,8.20
2018-12-09T16:45:11.978Z,8.20
2018-12-09T16:47:39.420Z,8.20
2018-12-09T16:50:06.932Z,8.00
2018-12-09T16:52:34.421Z,8.00
2018-12-09T16:55:01.887Z,8.00
2018-12-09T16:57:29.381Z,7.90
2018-12-09T16:59:56.857Z,7.90
2018-12-09T17:02:24.311Z,7.80
2018-12-09T17:04:51.751Z,7.80
2018-12-09T17:07:19.206Z,7.70
2018-12-09T17:09:46.674Z,7.70
2018-12-09T17:12:14.125Z,7.70
2018-12-09T17:14:41.610Z,7.60
2018-12-09T17:17:09.053Z,7.70
2018-12-09T17:19:37.845Z,7.70
2018-12-09T17:22:05.487Z,7.60
2018-12-09T17:24:32.935Z,7.60
2018-12-09T17:27:00.445Z,7.60
2018-12-09T17:29:27.971Z,7.50
2018-12-09T17:31:55.416Z,7.50
2018-12-09T17:34:23.002Z,7.50
2018-12-09T17:36:50.566Z,7.40
2018-12-09T17:39:18.108Z,7.30
2018-12-09T17:41:45.582Z,7.30
2018-12-09T17:44:13.023Z,7.30
2018-12-09T17:46:40.482Z,7.30
2018-12-09T17:49:07.967Z,7.30
2018-12-09T17:51:35.516Z,7.30
2018-12-09T17:54:03.079Z,7.30
2018-12-09T17:56:30.524Z,7.30
2018-12-09T17:58:57.984Z,7.30
2018-12-09T18:01:25.435Z,7.30
2018-12-09T18:03:53.027Z,7.30
2018-12-09T18:06:20.552Z,7.20
2018-12-09T18:08:47.991Z,7.30
2018-12-09T18:11:15.485Z,7.40
2018-12-09T18:13:43.038Z,7.30
2018-12-09T18:16:10.637Z,7.30
2018-12-09T18:18:38.160Z,7.30
2018-12-09T18:21:05.722Z,7.30
2018-12-09T18:23:33.264Z,7.30
2018-12-09T18:26:02.042Z,7.30
2018-12-09T18:28:29.787Z,7.40
2018-12-09T18:30:57.298Z,7.40
2018-12-09T18:33:24.853Z,7.30
2018-12-09T18:35:52.407Z,7.30
2018-12-09T18:38:20.487Z,7.30
2018-12-09T18:40:48.041Z,7.20
2018-12-09T18:43:15.583Z,7.30
2018-12-09T18:45:43.153Z,7.20
2018-12-09T18:48:10.802Z,7.20
2018-12-09T18:50:39.046Z,7.10
2018-12-09T18:53:06.735Z,7.00
2018-12-09T18:55:34.204Z,7.00
2018-12-09T18:58:01.674Z,7.00
2018-12-09T19:00:29.124Z,7.00
2018-12-09T19:02:56.595Z,7.00
2018-12-09T19:05:24.137Z,6.90
2018-12-09T19:07:51.779Z,6.90
2018-12-09T19:10:19.305Z,6.90
2018-12-09T19:12:46.821Z,6.90
2018-12-09T19:15:14.390Z,6.80
2018-12-09T19:17:41.977Z,6.80
2018-12-09T19:20:09.495Z,6.90
2018-12-09T19:22:37.125Z,6.90
2018-12-09T19:25:05.892Z,6.90
2018-12-09T19:27:33.450Z,6.90
2018-12-09T19:30:00.964Z,7.00
2018-12-09T19:32:28.440Z,7.00
2018-12-09T19:34:55.908Z,7.00
2018-12-09T19:37:23.437Z,7.00
2018-12-09T19:39:51.142Z,7.00
2018-12-09T19:42:18.686Z,7.00
2018-12-09T19:44:46.370Z,7.00
2018-12-09T19:47:13.811Z,6.90
2018-12-09T19:49:41.290Z,6.90
2018-12-09T19:52:08.903Z,6.90
2018-12-09T19:54:36.720Z,6.80
2018-12-09T19:57:04.280Z,6.80
2018-12-09T19:59:31.806Z,6.80
2018-12-09T20:01:59.258Z,6.80
2018-12-09T20:04:26.767Z,6.80
2018-12-09T20:06:54.227Z,6.80
2018-12-09T20:09:21.767Z,6.80
2018-12-09T20:11:49.254Z,6.70
2018-12-09T20:14:16.867Z,6.70
2018-12-09T20:16:45.339Z,6.70
2018-12-09T20:19:12.965Z,6.70
2018-12-09T20:21:40.648Z,6.70
2018-12-09T20:24:08.104Z,6.70
2018-12-09T20:26:35.579Z,6.60
2018-12-09T20:29:03.139Z,6.70
2018-12-09T20:31:30.704Z,6.60
2018-12-09T20:33:58.386Z,6.60
2018-12-09T20:36:25.901Z,6.50
2018-12-09T20:38:53.460Z,6.40
2018-12-09T20:41:21.039Z,6.40
2018-12-09T20:43:48.877Z,6.40
2018-12-09T20:46:16.411Z,6.40
2018-12-09T20:48:43.905Z,6.30
2018-12-09T20:51:11.394Z,6.20
2018-12-09T20:53:38.892Z,6.20
2018-12-09T20:56:06.342Z,6.20
2018-12-09T20:58:34.494Z,6.10
2018-12-09T21:01:02.138Z,6.00
2018-12-09T21:03:29.674Z,6.00
2018-12-09T21:05:57.117Z,6.00
2018-12-09T21:08:24.586Z,6.00
2018-12-09T21:10:52.080Z,5.90
2018-12-09T21:13:19.547Z,5.90
2018-12-09T21:15:46.992Z,5.90
2018-12-09T21:18:14.440Z,5.90
2018-12-09T21:20:41.922Z,5.80
2018-12-09T21:23:09.423Z,5.80
2018-12-09T21:25:36.900Z,5.80
2018-12-09T21:28:04.349Z,5.70
2018-12-09T21:30:31.954Z,5.70
2018-12-09T21:32:59.419Z,5.70
2018-12-09T21:35:26.904Z,5.70
2018-12-09T21:37:54.353Z,5.70
2018-12-09T21:40:21.822Z,5.60
2018-12-09T21:42:49.277Z,5.60
2018-12-09T21:45:16.731Z,5.60
2018-12-09T21:47:44.221Z,5.60
2018-12-09T21:50:11.674Z,5.70
2018-12-09T21:52:39.237Z,5.70
2018-12-09T21:55:07.091Z,5.70
2018-12-09T21:57:34.609Z,5.70
2018-12-09T22:00:02.168Z,5.70
2018-12-09T22:02:29.661Z,5.70
2018-12-09T22:04:57.107Z,5.60
2018-12-09T22:07:24.570Z,5.60
2018-12-09T22:09:52.031Z,5.60
2018-12-09T22:12:19.793Z,5.70
2018-12-09T22:14:47.364Z,5.70
2018-12-09T22:17:14.857Z,5.60
2018-12-09T22:19:42.377Z,5.60
2018-12-09T22:22:09.865Z,5.50
2018-12-09T22:24:37.307Z,5.50
2018-12-09T22:27:04.772Z,5.60
2018-12-09T22:29:33.280Z,5.50
2018-12-09T22:32:00.783Z,5.60
2018-12-09T22:34:28.215Z,5.60
2018-12-09T22:36:55.694Z,5.60
2018-12-09T22:39:23.182Z,5.70
2018-12-09T22:41:50.627Z,5.70
2018-12-09T22:44:18.214Z,5.80
2018-12-09T22:46:45.748Z,5.80
2018-12-09T22:49:13.188Z,5.80
2018-12-09T22:51:40.633Z,5.90
2018-12-09T22:54:08.149Z,5.90
2018-12-09T22:56:35.690Z,5.90
2018-12-09T22:59:03.273Z,5.90
2018-12-09T23:01:30.813Z,5.90
2018-12-09T23:03:58.371Z,5.90
2018-12-09T23:06:25.816Z,5.90
2018-12-09T23:08:53.269Z,5.90
2018-12-09T23:11:20.825Z,5.80
2018-12-09T23:13:48.291Z,5.80
2018-12-09T23:16:15.749Z,5.70
2018-12-09T23:18:43.195Z,5.60
2018-12-09T23:21:10.715Z,5.60
2018-12-09T23:23:38.199Z,5.50
2018-12-09T23:26:05.636Z,5.50
2018-12-09T23:28:33.106Z,5.50
2018-12-09T23:31:00.558Z,5.50
2018-12-09T23:33:27.999Z,5.50
2018-12-09T23:35:55.480Z,5.40
2018-12-09T23:38:22.943Z,5.50
2018-12-09T23:40:50.400Z,5.50
2018-12-09T23:43:17.839Z,5.50
2018-12-09T23:45:45.327Z,5.60
2018-12-09T23:48:12.767Z,5.60
2018-12-09T23:50:40.231Z,5.60
2018-12-09T23:53:07.779Z,5.50
2018-12-09T23:55:35.242Z,5.50
2018-12-09T23:58:02.687Z,5.50
